Time;durP1;ratioP1;P1;durP2;ratioP2;P2;SDS_P1;SDS_P2;PMS_P1;PMS_P2;Temp;Humidity;BMP_temperature;BMP_pressure;BME280_temperature;BME280_humidity;BME280_pressure;Samples;Min_cycle;Max_cycle;Signal;HPM_P1;HPM_P2
2023/05/06 00:00:05;;;;;;;1.40;1.30;;;13.10;99.90;;;;;;5054081;28;20227;-67
2023/05/06 00:02:30;;;;;;;1.10;1.10;;;13.10;99.90;;;;;;5053977;28;20200;-69
2023/05/06 00:04:56;;;;;;;1.03;1.03;;;12.80;99.90;;;;;;5053739;28;20400;-68
2023/05/06 00:07:21;;;;;;;0.77;0.77;;;13.00;99.90;;;;;;5053621;28;20169;-68
2023/05/06 00:09:47;;;;;;;1.93;1.23;;;12.90;99.90;;;;;;5054058;28;20532;-68
2023/05/06 00:12:13;;;;;;;1.43;1.33;;;13.00;99.90;;;;;;5053868;28;20224;-69
2023/05/06 00:14:39;;;;;;;1.43;1.43;;;13.10;99.90;;;;;;5053738;28;20947;-69
2023/05/06 00:17:05;;;;;;;1.77;1.73;;;13.10;99.90;;;;;;5053781;28;20787;-68
2023/05/06 00:19:30;;;;;;;1.13;1.03;;;13.10;99.90;;;;;;5053991;28;20173;-69
2023/05/06 00:21:56;;;;;;;0.87;0.83;;;13.10;99.90;;;;;;5053543;28;20167;-69
2023/05/06 00:24:22;;;;;;;4.83;1.23;;;13.00;99.90;;;;;;5053657;28;20180;-69
2023/05/06 00:26:47;;;;;;;1.73;1.63;;;13.00;99.90;;;;;;5053147;28;20428;-68
2023/05/06 00:29:13;;;;;;;1.63;1.53;;;13.10;99.90;;;;;;5053362;28;20182;-69
2023/05/06 00:31:40;;;;;;;1.13;0.97;;;13.10;99.90;;;;;;5053540;28;20588;-69
2023/05/06 00:34:05;;;;;;;4.00;1.77;;;13.10;99.90;;;;;;5053327;28;20221;-68
2023/05/06 00:36:31;;;;;;;1.90;1.80;;;13.10;99.90;;;;;;5053221;28;20930;-69
2023/05/06 00:38:57;;;;;;;1.03;1.03;;;13.20;99.90;;;;;;5053255;28;20249;-69
2023/05/06 00:41:22;;;;;;;1.30;0.93;;;13.10;99.90;;;;;;5053443;28;20170;-69
2023/05/06 00:43:48;;;;;;;17.23;1.70;;;13.10;99.90;;;;;;5053275;28;20163;-68
2023/05/06 00:46:16;;;;;;;3.10;2.53;;;13.10;99.90;;;;;;5053227;28;20190;-68
2023/05/06 00:48:43;;;;;;;1.17;1.17;;;13.10;99.90;;;;;;5053115;28;20196;-69
2023/05/06 00:51:09;;;;;;;3.07;2.47;;;13.10;99.90;;;;;;5053242;28;20916;-69
2023/05/06 00:53:35;;;;;;;0.67;0.63;;;13.10;99.90;;;;;;5053265;28;20411;-68
2023/05/06 00:56:02;;;;;;;0.63;0.63;;;13.10;99.90;;;;;;5052935;28;20466;-68
2023/05/06 00:58:28;;;;;;;2.80;0.90;;;13.10;99.90;;;;;;5052942;28;20495;-69
2023/05/06 01:00:54;;;;;;;1.70;1.63;;;13.20;99.90;;;;;;5053503;28;20496;-69
2023/05/06 01:03:20;;;;;;;2.00;1.40;;;13.10;99.90;;;;;;5056180;28;20176;-69
2023/05/06 01:06:13;;;;;;;2.70;2.50;;;13.10;99.90;;;;;;5057156;28;20417;-69
2023/05/06 01:08:53;;;;;;;2.30;2.10;;;13.00;99.90;;;;;;5057011;28;20171;-69
2023/05/06 01:11:42;;;;;;;1.00;1.00;;;13.00;99.90;;;;;;5057467;28;20630;-68
2023/05/06 01:14:12;;;;;;;3.47;3.27;;;13.00;99.90;;;;;;5057085;28;20845;-68
2023/05/06 01:16:40;;;;;;;3.23;1.73;;;13.00;99.90;;;;;;5057023;28;20504;-69
2023/05/06 01:19:11;;;;;;;0.60;0.60;;;13.00;99.90;;;;;;5056971;28;20824;-69
2023/05/06 01:21:40;;;;;;;0.97;0.97;;;13.00;99.90;;;;;;5057037;28;20411;-68
2023/05/06 01:24:06;;;;;;;0.77;0.77;;;13.00;99.90;;;;;;5056798;28;20389;-69
2023/05/06 01:26:31;;;;;;;0.50;0.50;;;12.90;99.90;;;;;;5056686;28;20954;-69
2023/05/06 01:28:57;;;;;;;1.43;1.33;;;12.90;99.90;;;;;;5056646;28;20174;-69
2023/05/06 01:31:24;;;;;;;1.63;1.53;;;12.90;99.90;;;;;;5056867;28;20574;-69
2023/05/06 01:34:13;;;;;;;1.33;1.33;;;12.90;99.90;;;;;;5056859;28;20226;-68
2023/05/06 01:36:57;;;;;;;2.00;1.03;;;12.90;99.90;;;;;;5056536;28;20433;-69
2023/05/06 01:39:28;;;;;;;0.90;0.90;;;12.90;99.90;;;;;;5056575;28;20394;-68
2023/05/06 01:41:56;;;;;;;3.47;1.83;;;12.90;99.90;;;;;;5056678;28;20419;-67
2023/05/06 01:44:22;;;;;;;2.30;2.17;;;12.80;99.90;;;;;;5056366;28;20397;-69
2023/05/06 01:46:50;;;;;;;0.90;0.90;;;12.80;99.90;;;;;;5056175;28;20896;-69
2023/05/06 01:49:17;;;;;;;1.03;1.03;;;12.80;99.90;;;;;;5056647;28;20420;-68
2023/05/06 01:51:47;;;;;;;0.90;0.90;;;12.80;99.90;;;;;;5056269;28;20791;-69
2023/05/06 01:54:13;;;;;;;1.37;1.27;;;12.80;99.90;;;;;;5056638;28;20435;-68
2023/05/06 01:56:39;;;;;;;2.60;2.10;;;12.80;99.90;;;;;;5056340;28;20830;-69
2023/05/06 01:59:05;;;;;;;0.93;0.80;;;12.80;99.90;;;;;;5056006;28;20415;-69
2023/05/06 02:01:31;;;;;;;2.77;2.20;;;12.80;99.90;;;;;;5056135;28;20253;-69
2023/05/06 02:03:56;;;;;;;1.60;1.17;;;12.80;99.90;;;;;;5056278;28;20488;-68
2023/05/06 02:06:22;;;;;;;0.70;0.70;;;12.80;99.90;;;;;;5055930;28;20233;-68
2023/05/06 02:08:48;;;;;;;3.73;1.50;;;12.80;99.90;;;;;;5055874;28;20523;-68
2023/05/06 02:11:14;;;;;;;5.17;4.20;;;12.60;99.90;;;;;;5055936;28;20204;-68
2023/05/06 02:13:39;;;;;;;2.67;2.47;;;12.70;99.90;;;;;;5055357;28;20401;-69
2023/05/06 02:16:05;;;;;;;1.57;1.37;;;12.70;99.90;;;;;;5055702;28;20456;-69
2023/05/06 02:18:31;;;;;;;2.23;2.03;;;12.70;99.90;;;;;;5055718;28;20169;-69
2023/05/06 02:20:57;;;;;;;4.47;3.00;;;12.80;99.90;;;;;;5055780;28;20166;-68
2023/05/06 02:23:22;;;;;;;2.53;2.43;;;12.80;99.90;;;;;;5055876;28;20169;-69
2023/05/06 02:25:49;;;;;;;2.57;2.37;;;12.80;99.90;;;;;;5055593;28;20193;-70
2023/05/06 02:28:14;;;;;;;1.07;0.90;;;12.90;99.90;;;;;;5055410;28;20192;-68
2023/05/06 02:30:40;;;;;;;1.53;1.43;;;13.00;99.90;;;;;;5055836;28;20892;-69
2023/05/06 02:33:05;;;;;;;1.37;1.37;;;13.00;99.90;;;;;;5055605;28;20261;-68
2023/05/06 02:35:31;;;;;;;2.33;2.10;;;12.90;99.90;;;;;;5055389;28;20209;-69
2023/05/06 02:37:58;;;;;;;3.43;3.23;;;12.80;99.90;;;;;;5055196;28;20536;-68
2023/05/06 02:40:24;;;;;;;0.60;0.60;;;12.70;99.90;;;;;;5055562;28;20173;-68
2023/05/06 02:42:49;;;;;;;0.90;0.90;;;12.60;99.90;;;;;;5055459;28;20414;-68
2023/05/06 02:45:15;;;;;;;5.13;2.37;;;12.60;99.90;;;;;;5055239;28;20199;-68
2023/05/06 02:47:41;;;;;;;1.17;0.93;;;12.60;99.90;;;;;;5055323;28;20162;-68
2023/05/06 02:50:06;;;;;;;1.07;0.97;;;12.50;99.90;;;;;;5055229;28;20225;-67
2023/05/06 02:52:33;;;;;;;1.83;1.27;;;12.40;99.90;;;;;;5055358;28;20177;-69
2023/05/06 02:54:59;;;;;;;2.23;2.03;;;12.20;99.90;;;;;;5055166;28;20536;-69
2023/05/06 02:57:25;;;;;;;1.67;1.57;;;12.20;99.90;;;;;;5054830;28;20397;-68
2023/05/06 02:59:51;;;;;;;1.47;1.37;;;12.20;99.90;;;;;;5055074;28;20401;-69
2023/05/06 03:02:17;;;;;;;1.10;1.10;;;12.30;99.90;;;;;;5055208;28;20397;-69
2023/05/06 03:04:42;;;;;;;1.30;1.20;;;12.30;99.90;;;;;;5055149;28;20174;-69
2023/05/06 03:07:08;;;;;;;1.07;0.97;;;12.30;99.90;;;;;;5054666;28;20194;-69
2023/05/06 03:09:34;;;;;;;1.10;1.10;;;12.30;99.90;;;;;;5055040;28;20179;-69
2023/05/06 03:12:00;;;;;;;1.33;0.97;;;12.10;99.90;;;;;;5053410;28;20472;-68
2023/05/06 03:14:26;;;;;;;1.63;1.53;;;12.10;99.90;;;;;;5053829;28;20288;-69
2023/05/06 03:16:52;;;;;;;1.27;1.27;;;12.00;99.90;;;;;;5054770;28;20482;-69
2023/05/06 03:19:17;;;;;;;1.70;1.60;;;12.00;99.90;;;;;;5052948;28;20180;-69
2023/05/06 03:21:43;;;;;;;3.70;1.43;;;11.90;99.90;;;;;;5054587;28;20619;-69
2023/05/06 03:24:09;;;;;;;1.00;1.00;;;11.80;99.90;;;;;;5054235;28;20166;-69
2023/05/06 03:26:34;;;;;;;1.83;1.73;;;11.80;99.90;;;;;;5053960;28;20212;-68
2023/05/06 03:29:00;;;;;;;1.47;1.37;;;11.90;99.90;;;;;;5054377;28;20514;-68
2023/05/06 03:31:26;;;;;;;0.80;0.80;;;12.00;99.90;;;;;;5054507;28;20220;-68
2023/05/06 03:33:51;;;;;;;1.60;1.50;;;11.90;99.90;;;;;;5054535;28;20176;-69
2023/05/06 03:36:17;;;;;;;1.70;1.60;;;11.80;99.90;;;;;;5054129;28;20237;-67
2023/05/06 03:38:42;;;;;;;1.90;1.80;;;11.70;99.90;;;;;;5054174;28;20177;-68
2023/05/06 03:41:08;;;;;;;0.80;0.63;;;11.70;99.90;;;;;;5054705;28;20174;-68
2023/05/06 03:43:34;;;;;;;1.20;1.10;;;11.60;99.90;;;;;;5054544;28;20166;-69
2023/05/06 03:46:00;;;;;;;1.13;1.13;;;11.60;99.90;;;;;;5054319;28;20642;-69
2023/05/06 03:48:26;;;;;;;1.57;1.47;;;11.60;99.90;;;;;;5053921;28;20415;-68
2023/05/06 03:50:51;;;;;;;1.53;1.43;;;11.60;99.90;;;;;;5054054;28;20190;-68
2023/05/06 03:53:18;;;;;;;1.47;1.37;;;11.70;99.90;;;;;;5053975;28;20571;-69
2023/05/06 03:55:44;;;;;;;1.10;1.00;;;11.60;99.90;;;;;;5053824;28;20212;-67
2023/05/06 03:58:10;;;;;;;0.70;0.70;;;11.60;99.90;;;;;;5053709;28;20409;-67
2023/05/06 04:00:35;;;;;;;0.70;0.63;;;11.70;99.90;;;;;;5053953;28;20256;-69
2023/05/06 04:03:01;;;;;;;3.50;2.90;;;11.80;99.90;;;;;;5053957;28;20454;-69
2023/05/06 04:05:27;;;;;;;2.53;2.30;;;11.70;99.90;;;;;;5053801;28;20190;-68
2023/05/06 04:07:53;;;;;;;1.00;1.00;;;11.60;99.90;;;;;;5053462;28;20188;-69
2023/05/06 04:10:19;;;;;;;1.50;1.40;;;11.60;99.90;;;;;;5053667;28;20170;-69
2023/05/06 04:12:44;;;;;;;1.50;1.10;;;11.50;99.90;;;;;;5053500;28;20423;-69
2023/05/06 04:15:10;;;;;;;0.50;0.50;;;11.40;99.90;;;;;;5052264;28;20824;-68
2023/05/06 04:17:36;;;;;;;3.77;3.37;;;11.30;99.90;;;;;;5051281;28;20180;-68
2023/05/06 04:20:10;;;;;;;0.90;0.73;;;11.30;99.90;;;;;;5052980;28;20417;-69
2023/05/06 04:22:37;;;;;;;1.53;0.87;;;11.40;99.90;;;;;;5053828;28;20288;-68
2023/05/06 04:25:03;;;;;;;0.73;0.73;;;12.10;99.90;;;;;;5053310;28;20432;-69
2023/05/06 04:27:30;;;;;;;2.00;1.57;;;12.10;99.90;;;;;;5053644;28;20491;-68
2023/05/06 04:29:57;;;;;;;0.60;0.60;;;12.50;99.90;;;;;;5053421;28;20409;-68
2023/05/06 04:32:25;;;;;;;1.20;1.10;;;13.00;99.90;;;;;;5054065;28;20888;-69
2023/05/06 04:34:52;;;;;;;1.67;1.57;;;13.80;99.90;;;;;;5054078;28;20460;-69
2023/05/06 04:37:19;;;;;;;2.10;2.00;;;13.70;99.90;;;;;;5053072;28;20409;-69
2023/05/06 04:39:45;;;;;;;1.83;1.73;;;14.00;99.90;;;;;;5053737;28;20522;-67
2023/05/06 04:42:12;;;;;;;2.07;1.83;;;14.20;99.90;;;;;;5052835;28;20875;-69
2023/05/06 04:44:38;;;;;;;1.60;1.50;;;14.30;99.90;;;;;;5050878;28;20446;-70
2023/05/06 04:47:03;;;;;;;1.47;1.37;;;14.40;99.90;;;;;;5053617;28;20464;-70
2023/05/06 04:49:29;;;;;;;3.73;1.27;;;14.30;99.90;;;;;;5053189;28;20656;-69
2023/05/06 04:51:55;;;;;;;1.17;1.17;;;14.10;99.90;;;;;;5051071;28;20205;-70
2023/05/06 04:54:21;;;;;;;0.50;0.50;;;13.90;99.90;;;;;;5052768;28;20170;-70
2023/05/06 04:56:47;;;;;;;1.33;1.23;;;13.70;99.90;;;;;;5051710;28;20447;-69
2023/05/06 04:59:12;;;;;;;2.60;2.40;;;13.60;99.90;;;;;;5051313;28;20177;-69
2023/05/06 05:01:38;;;;;;;1.63;1.53;;;13.50;99.90;;;;;;5052471;28;20178;-70
2023/05/06 05:04:04;;;;;;;1.27;0.90;;;13.40;99.90;;;;;;5053231;28;20173;-69
2023/05/06 05:06:30;;;;;;;1.20;1.10;;;13.30;99.90;;;;;;5053054;28;20190;-70
2023/05/06 05:08:56;;;;;;;2.50;1.93;;;13.20;99.90;;;;;;5052887;28;20814;-70
2023/05/06 05:11:22;;;;;;;3.47;1.60;;;13.20;99.90;;;;;;5053309;28;20402;-69
2023/05/06 05:13:47;;;;;;;1.10;1.07;;;13.30;99.90;;;;;;5053496;28;20227;-68
2023/05/06 05:16:13;;;;;;;1.23;1.13;;;13.50;99.90;;;;;;5053383;28;20676;-69
2023/05/06 05:18:39;;;;;;;6.93;3.00;;;13.70;99.90;;;;;;5052840;28;20592;-70
2023/05/06 05:21:04;;;;;;;3.40;2.70;;;14.00;99.90;;;;;;5052906;28;20573;-68
2023/05/06 05:23:30;;;;;;;1.43;1.33;;;14.20;99.90;;;;;;5052847;28;20170;-68
2023/05/06 05:25:55;;;;;;;1.33;1.23;;;14.30;99.90;;;;;;5050913;28;20275;-69
2023/05/06 05:28:21;;;;;;;1.20;1.10;;;14.40;99.90;;;;;;5051733;28;20293;-68
2023/05/06 05:30:47;;;;;;;1.20;1.20;;;14.60;99.90;;;;;;5051538;28;20186;-69
2023/05/06 05:33:12;;;;;;;0.97;0.97;;;14.80;99.90;;;;;;5051316;28;20176;-68
2023/05/06 05:35:38;;;;;;;0.40;0.40;;;14.80;99.90;;;;;;5052671;28;20213;-69
2023/05/06 05:38:03;;;;;;;2.10;2.00;;;14.70;99.90;;;;;;5052866;28;20170;-69
2023/05/06 05:40:29;;;;;;;1.37;1.27;;;14.60;99.90;;;;;;5052153;28;20619;-70
2023/05/06 05:42:55;;;;;;;1.90;1.80;;;15.20;99.90;;;;;;5050813;28;20173;-70
2023/05/06 05:45:20;;;;;;;0.70;0.70;;;16.00;99.90;;;;;;5052600;28;20188;-69
2023/05/06 05:47:46;;;;;;;0.63;0.63;;;16.50;99.90;;;;;;5053039;28;20565;-69
2023/05/06 05:50:12;;;;;;;0.80;0.80;;;17.40;99.90;;;;;;5056222;28;20194;-70
2023/05/06 05:52:37;;;;;;;0.73;0.73;;;18.80;97.90;;;;;;5055360;28;20209;-70
2023/05/06 05:55:03;;;;;;;0.50;0.50;;;21.30;99.90;;;;;;5056113;28;20601;-70
2023/05/06 05:57:29;;;;;;;0.73;0.60;;;21.60;94.00;;;;;;5055809;28;20184;-70
2023/05/06 05:59:55;;;;;;;0.80;0.80;;;22.40;91.30;;;;;;5053408;28;21124;-70
2023/05/06 06:02:20;;;;;;;0.80;0.80;;;22.80;88.90;;;;;;5054248;28;20421;-70
2023/05/06 06:04:46;;;;;;;0.60;0.50;;;22.90;86.50;;;;;;5056359;28;20261;-70
2023/05/06 06:07:12;;;;;;;1.33;0.80;;;22.40;84.80;;;;;;5053426;28;20277;-68
2023/05/06 06:09:38;;;;;;;0.73;0.73;;;22.00;86.90;;;;;;5056106;28;20411;-69
2023/05/06 06:12:04;;;;;;;1.00;0.80;;;22.10;85.60;;;;;;5055813;28;20761;-69
2023/05/06 06:14:29;;;;;;;0.40;0.40;;;22.10;85.80;;;;;;5056103;28;20209;-70
2023/05/06 06:16:55;;;;;;;0.50;0.50;;;21.90;85.80;;;;;;5055832;28;20190;-69
2023/05/06 06:19:20;;;;;;;0.60;0.60;;;21.50;87.10;;;;;;5055792;28;20223;-69
2023/05/06 06:21:46;;;;;;;0.80;0.80;;;21.00;87.80;;;;;;5055938;28;20278;-70
2023/05/06 06:24:12;;;;;;;1.13;0.70;;;20.70;88.90;;;;;;5055799;28;20174;-70
2023/05/06 06:26:38;;;;;;;0.50;0.50;;;20.60;90.20;;;;;;5055642;28;20190;-70
2023/05/06 06:29:03;;;;;;;0.60;0.60;;;20.50;89.90;;;;;;5054392;28;20178;-70
2023/05/06 06:31:29;;;;;;;0.53;0.53;;;20.30;89.60;;;;;;5055455;28;20185;-70
2023/05/06 06:33:55;;;;;;;3.30;1.00;;;20.50;91.20;;;;;;5055663;28;20174;-70
2023/05/06 06:36:20;;;;;;;0.70;0.70;;;20.90;90.60;;;;;;5055343;28;20198;-69
2023/05/06 06:38:46;;;;;;;1.40;0.63;;;21.70;90.10;;;;;;5055412;28;20591;-69
2023/05/06 06:41:11;;;;;;;1.27;1.20;;;22.70;86.10;;;;;;5054920;28;20170;-69
2023/05/06 06:43:37;;;;;;;0.73;0.70;;;23.30;84.60;;;;;;5053687;28;20173;-69
2023/05/06 06:46:04;;;;;;;1.07;1.07;;;23.60;82.00;;;;;;5055008;28;20202;-69
2023/05/06 06:48:30;;;;;;;0.50;0.47;;;23.60;81.60;;;;;;5053859;28;20280;-69
2023/05/06 06:50:56;;;;;;;0.70;0.70;;;23.60;80.30;;;;;;5055192;28;20403;-68
2023/05/06 06:53:21;;;;;;;1.77;1.10;;;23.50;81.80;;;;;;5055243;28;20574;-72
2023/05/06 06:55:47;;;;;;;0.80;0.80;;;23.40;83.20;;;;;;5055066;28;20209;-71
2023/05/06 06:58:13;;;;;;;0.60;0.60;;;23.30;84.10;;;;;;5055037;28;20174;-71
2023/05/06 07:00:38;;;;;;;0.60;0.60;;;22.90;82.20;;;;;;5055659;28;20197;-71
2023/05/06 07:03:04;;;;;;;0.70;0.70;;;22.40;83.80;;;;;;5055079;28;20172;-71
2023/05/06 07:05:29;;;;;;;0.60;0.60;;;22.10;84.80;;;;;;5055063;28;20666;-71
2023/05/06 07:07:55;;;;;;;1.33;0.50;;;21.90;86.50;;;;;;5054809;28;20185;-71
2023/05/06 07:10:21;;;;;;;0.60;0.60;;;21.70;86.00;;;;;;5055248;28;20212;-69
2023/05/06 07:12:47;;;;;;;1.33;0.70;;;21.80;88.70;;;;;;5054901;28;20185;-71
2023/05/06 07:15:12;;;;;;;0.60;0.60;;;21.80;87.00;;;;;;5054777;28;20457;-72
2023/05/06 07:17:38;;;;;;;0.40;0.40;;;22.00;85.70;;;;;;5054819;28;20497;-72
2023/05/06 07:20:04;;;;;;;0.50;0.50;;;21.60;85.20;;;;;;5054612;28;20170;-72
2023/05/06 07:22:30;;;;;;;0.43;0.43;;;21.50;87.60;;;;;;5054263;28;20594;-70
2023/05/06 07:24:56;;;;;;;0.53;0.53;;;22.50;86.20;;;;;;5054322;28;20492;-72
2023/05/06 07:27:23;;;;;;;0.93;0.50;;;23.70;78.90;;;;;;5053150;28;20181;-70
2023/05/06 07:29:49;;;;;;;0.40;0.40;;;25.00;77.50;;;;;;5054013;28;20412;-72
2023/05/06 07:32:15;;;;;;;0.50;0.43;;;25.90;71.50;;;;;;5054431;28;20435;-71
2023/05/06 07:34:41;;;;;;;0.73;0.73;;;26.40;67.80;;;;;;5054280;28;20448;-72
2023/05/06 07:37:07;;;;;;;0.30;0.30;;;26.70;66.20;;;;;;5052502;28;20436;-71
2023/05/06 07:39:32;;;;;;;0.60;0.60;;;26.70;64.80;;;;;;5054419;28;20219;-69
2023/05/06 07:41:58;;;;;;;1.00;0.90;;;26.60;63.60;;;;;;5053953;28;20549;-71
2023/05/06 07:44:24;;;;;;;0.50;0.50;;;27.30;62.80;;;;;;5053004;28;20173;-70
2023/05/06 07:46:50;;;;;;;0.97;0.60;;;28.00;60.40;;;;;;5053635;28;20252;-70
2023/05/06 07:49:15;;;;;;;0.53;0.53;;;28.50;58.80;;;;;;5053912;28;20261;-72
2023/05/06 07:51:42;;;;;;;0.40;0.40;;;28.50;56.40;;;;;;5054138;28;20404;-71
2023/05/06 07:54:08;;;;;;;0.50;0.50;;;28.60;56.30;;;;;;5051806;28;20166;-71
2023/05/06 07:56:34;;;;;;;0.40;0.40;;;29.10;55.90;;;;;;5054492;28;20434;-71
2023/05/06 07:58:59;;;;;;;1.37;0.50;;;29.10;55.30;;;;;;5053319;28;20167;-70
2023/05/06 08:01:28;;;;;;;0.40;0.40;;;29.50;54.80;;;;;;5052977;28;20193;-70
2023/05/06 08:03:53;;;;;;;0.50;0.50;;;29.90;54.50;;;;;;5053245;28;20416;-73
2023/05/06 08:06:19;;;;;;;1.20;0.60;;;30.00;52.90;;;;;;5054164;28;20421;-71
2023/05/06 08:08:45;;;;;;;0.53;0.53;;;29.70;51.20;;;;;;5051922;28;20174;-71
2023/05/06 08:11:11;;;;;;;1.03;1.00;;;28.20;52.40;;;;;;5052430;28;20205;-72
2023/05/06 08:13:37;;;;;;;0.40;0.40;;;26.20;56.20;;;;;;5053496;28;20432;-72
2023/05/06 08:16:03;;;;;;;0.50;0.50;;;24.70;59.40;;;;;;5051860;28;20248;-69
2023/05/06 08:18:29;;;;;;;0.43;0.43;;;23.50;63.70;;;;;;5053537;28;20174;-72
2023/05/06 08:20:54;;;;;;;1.40;0.53;;;22.90;66.30;;;;;;5052123;28;20796;-71
2023/05/06 08:23:20;;;;;;;0.60;0.60;;;22.80;67.40;;;;;;5051281;28;20170;-72
2023/05/06 08:25:46;;;;;;;0.70;0.70;;;22.60;69.50;;;;;;5053537;28;20269;-71
2023/05/06 08:28:11;;;;;;;0.50;0.50;;;23.10;69.90;;;;;;5053054;28;20182;-72
2023/05/06 08:30:37;;;;;;;0.40;0.40;;;23.40;68.30;;;;;;5051492;28;20181;-72
2023/05/06 08:33:02;;;;;;;0.50;0.50;;;23.40;68.30;;;;;;5053656;28;20538;-72
2023/05/06 08:35:28;;;;;;;0.40;0.40;;;23.00;68.80;;;;;;5053309;28;20724;-69
2023/05/06 08:37:54;;;;;;;0.80;0.63;;;22.90;67.90;;;;;;5053289;28;20166;-72
2023/05/06 08:40:22;;;;;;;0.60;0.50;;;23.00;70.10;;;;;;5053103;28;20263;-70
2023/05/06 08:42:49;;;;;;;0.77;0.77;;;23.10;67.40;;;;;;5053149;28;20163;-70
2023/05/06 08:45:18;;;;;;;0.40;0.40;;;23.50;68.90;;;;;;5052953;28;20414;-70
2023/05/06 08:47:47;;;;;;;0.40;0.40;;;25.10;63.40;;;;;;5050738;28;20478;-70
2023/05/06 08:50:13;;;;;;;0.40;0.40;;;26.10;59.40;;;;;;5052956;28;20850;-71
2023/05/06 08:52:39;;;;;;;0.50;0.50;;;27.00;58.30;;;;;;5053110;28;20431;-71
2023/05/06 08:55:06;;;;;;;0.40;0.40;;;27.00;69.20;;;;;;5052546;28;20940;-72
2023/05/06 08:57:32;;;;;;;0.70;0.70;;;27.30;56.90;;;;;;5052612;28;20166;-73
2023/05/06 08:59:58;;;;;;;0.43;0.40;;;28.10;57.50;;;;;;5052057;28;20790;-73
2023/05/06 09:02:24;;;;;;;0.77;0.50;;;29.10;54.60;;;;;;5053205;28;20487;-71
2023/05/06 09:04:54;;;;;;;0.60;0.60;;;30.30;52.40;;;;;;5052638;28;20173;-71
2023/05/06 09:07:21;;;;;;;0.60;0.60;;;30.80;52.80;;;;;;5052425;28;20424;-73
2023/05/06 09:09:47;;;;;;;1.20;0.90;;;30.90;49.40;;;;;;5052944;28;20889;-71
2023/05/06 09:12:13;;;;;;;2.00;0.77;;;30.60;49.60;;;;;;5053019;28;20811;-73
2023/05/06 09:14:40;;;;;;;0.40;0.40;;;30.40;49.90;;;;;;5053092;28;20455;-72
2023/05/06 09:17:22;;;;;;;0.83;0.73;;;29.60;49.70;;;;;;5052662;28;20424;-69
2023/05/06 09:19:52;;;;;;;0.50;0.50;;;29.00;51.00;;;;;;5051780;28;20805;-71
2023/05/06 09:22:20;;;;;;;0.40;0.40;;;28.20;52.00;;;;;;5052824;28;20488;-71
2023/05/06 09:24:55;;;;;;;0.50;0.50;;;27.30;51.70;;;;;;5056461;28;20768;-72
2023/05/06 09:27:30;;;;;;;0.50;0.50;;;26.80;53.50;;;;;;5056684;28;20465;-71
2023/05/06 09:30:07;;;;;;;0.70;0.70;;;26.70;55.30;;;;;;5056927;28;20896;-72
2023/05/06 09:32:33;;;;;;;0.50;0.50;;;26.10;54.50;;;;;;5056851;28;20400;-69
2023/05/06 09:34:59;;;;;;;0.70;0.53;;;25.10;67.10;;;;;;5056447;28;20484;-71
2023/05/06 09:37:26;;;;;;;0.43;0.43;;;24.80;55.10;;;;;;5056433;28;20417;-69
2023/05/06 09:39:56;;;;;;;1.80;1.20;;;24.00;58.70;;;;;;5056736;28;20398;-72
2023/05/06 09:42:29;;;;;;;0.50;0.50;;;23.80;59.30;;;;;;5056534;28;20411;-72
2023/05/06 09:44:58;;;;;;;0.63;0.63;;;23.80;63.70;;;;;;5056608;28;20387;-72
2023/05/06 09:47:25;;;;;;;0.60;0.60;;;23.60;57.50;;;;;;5056260;28;20733;-72
2023/05/06 09:49:57;;;;;;;0.40;0.40;;;22.90;58.10;;;;;;5056426;28;20407;-72
2023/05/06 09:52:22;;;;;;;0.40;0.40;;;22.40;60.90;;;;;;5056426;28;20379;-72
2023/05/06 09:54:50;;;;;;;0.43;0.43;;;22.00;62.90;;;;;;5056380;28;20456;-72
2023/05/06 09:57:17;;;;;;;0.50;0.50;;;22.20;59.70;;;;;;5056166;28;20177;-71
2023/05/06 09:59:43;;;;;;;0.50;0.50;;;22.00;59.70;;;;;;5056315;28;20388;-71
2023/05/06 10:02:12;;;;;;;0.60;0.60;;;22.00;63.00;;;;;;5056391;28;20407;-71
2023/05/06 10:04:43;;;;;;;0.40;0.40;;;22.00;65.00;;;;;;5056027;28;20416;-70
2023/05/06 10:07:12;;;;;;;0.50;0.50;;;21.90;64.60;;;;;;5055882;28;20920;-71
2023/05/06 10:09:39;;;;;;;0.73;0.53;;;21.90;64.90;;;;;;5055766;28;20412;-70
2023/05/06 10:12:09;;;;;;;0.70;0.70;;;21.90;64.00;;;;;;5055601;28;20921;-71
2023/05/06 10:14:36;;;;;;;0.50;0.50;;;22.00;64.50;;;;;;5053476;28;20460;-72
2023/05/06 10:17:06;;;;;;;0.50;0.50;;;22.20;65.20;;;;;;5055090;28;20507;-70
2023/05/06 10:19:33;;;;;;;0.43;0.43;;;22.70;64.70;;;;;;5056248;28;20792;-73
2023/05/06 10:22:29;;;;;;;0.50;0.50;;;23.00;62.90;;;;;;5055339;28;20391;-70
2023/05/06 10:24:58;;;;;;;0.50;0.50;;;23.20;62.00;;;;;;5054997;28;20435;-70
2023/05/06 10:27:25;;;;;;;0.90;0.90;;;23.50;61.20;;;;;;5055551;28;20409;-72
2023/05/06 10:29:55;;;;;;;0.40;0.40;;;23.70;59.80;;;;;;5055631;28;20413;-72
2023/05/06 10:32:22;;;;;;;0.50;0.50;;;23.70;62.10;;;;;;5055827;28;20868;-71
2023/05/06 10:34:53;;;;;;;1.07;1.07;;;23.50;60.10;;;;;;5055242;28;20499;-72
2023/05/06 10:37:25;;;;;;;0.40;0.40;;;23.30;55.90;;;;;;5055247;28;20744;-70
2023/05/06 10:39:53;;;;;;;0.73;0.50;;;23.30;58.70;;;;;;5055836;28;20429;-70
2023/05/06 10:42:18;;;;;;;0.40;0.40;;;23.50;58.00;;;;;;5055631;28;20416;-69
2023/05/06 10:44:58;;;;;;;0.93;0.60;;;23.30;56.40;;;;;;5055002;28;20380;-71
2023/05/06 10:47:24;;;;;;;0.40;0.40;;;23.20;57.90;;;;;;5055501;28;20169;-72
2023/05/06 10:50:31;;;;;;;0.50;0.50;;;23.30;55.60;;;;;;5055159;28;20418;-72
2023/05/06 10:52:58;;;;;;;0.50;0.50;;;23.20;57.50;;;;;;5055057;28;20761;-70
2023/05/06 10:55:32;;;;;;;0.50;0.50;;;23.20;59.10;;;;;;5055029;28;20464;-70
2023/05/06 10:58:12;;;;;;;0.50;0.50;;;23.20;56.40;;;;;;5054994;28;20452;-70
2023/05/06 11:00:38;;;;;;;0.80;0.80;;;23.20;56.60;;;;;;5055078;28;20412;-72
2023/05/06 11:03:10;;;;;;;0.30;0.30;;;23.00;57.40;;;;;;5055064;28;20408;-70
2023/05/06 11:05:51;;;;;;;0.40;0.40;;;22.70;56.60;;;;;;5054939;28;20194;-72
2023/05/06 11:08:25;;;;;;;0.40;0.40;;;22.90;56.90;;;;;;5054580;28;20391;-70
2023/05/06 11:10:54;;;;;;;0.40;0.40;;;23.20;57.60;;;;;;5054575;28;20741;-73
2023/05/06 11:13:28;;;;;;;0.70;0.47;;;23.40;58.10;;;;;;5054790;28;20413;-72
2023/05/06 11:15:55;;;;;;;0.30;0.30;;;23.60;55.70;;;;;;5054781;28;20485;-70
2023/05/06 11:18:40;;;;;;;0.63;0.40;;;23.70;55.20;;;;;;5054640;28;20379;-70
2023/05/06 11:21:05;;;;;;;0.40;0.40;;;23.80;56.40;;;;;;5054230;28;20405;-71
2023/05/06 11:23:54;;;;;;;0.40;0.40;;;23.60;56.60;;;;;;5054655;28;20408;-73
2023/05/06 11:26:20;;;;;;;0.40;0.40;;;23.10;57.80;;;;;;5054463;28;20689;-71
2023/05/06 11:28:47;;;;;;;0.80;0.80;;;22.90;57.70;;;;;;5054546;28;20405;-72
2023/05/06 11:31:14;;;;;;;0.70;0.50;;;23.20;56.00;;;;;;5054505;28;20462;-70
2023/05/06 11:33:48;;;;;;;0.57;0.40;;;23.60;57.30;;;;;;5054442;28;20419;-71
2023/05/06 11:36:16;;;;;;;0.40;0.40;;;23.80;56.00;;;;;;5054304;28;20827;-69
2023/05/06 11:38:48;;;;;;;0.50;0.50;;;23.60;56.60;;;;;;5054341;28;20376;-72
2023/05/06 11:41:15;;;;;;;0.73;0.73;;;23.40;55.40;;;;;;5054498;28;20755;-72
2023/05/06 11:43:52;;;;;;;0.60;0.47;;;23.20;56.40;;;;;;5054122;28;20408;-71
2023/05/06 11:46:18;;;;;;;0.40;0.40;;;23.30;57.70;;;;;;5052651;28;20435;-70
2023/05/06 11:48:44;;;;;;;0.40;0.40;;;23.60;58.50;;;;;;5053868;28;20398;-71
2023/05/06 11:51:10;;;;;;;1.10;1.10;;;24.00;56.80;;;;;;5054260;28;20375;-71
2023/05/06 11:53:36;;;;;;;0.40;0.40;;;24.20;56.20;;;;;;5054136;28;20692;-71
2023/05/06 11:56:04;;;;;;;1.60;0.70;;;24.10;54.50;;;;;;5053792;28;20206;-71
2023/05/06 11:58:30;;;;;;;0.60;0.60;;;24.10;54.80;;;;;;5053519;28;20380;-70
2023/05/06 12:00:58;;;;;;;0.50;0.50;;;24.20;53.60;;;;;;5054017;28;20411;-70
2023/05/06 12:03:25;;;;;;;0.50;0.50;;;24.20;54.40;;;;;;5050969;28;20572;-72
2023/05/06 12:05:51;;;;;;;0.60;0.60;;;23.80;54.60;;;;;;5052696;28;20577;-70
2023/05/06 12:08:26;;;;;;;0.50;0.50;;;23.50;55.60;;;;;;5053312;28;20383;-73
2023/05/06 12:10:54;;;;;;;1.00;1.00;;;23.60;55.40;;;;;;5053035;28;20413;-71
2023/05/06 12:13:20;;;;;;;0.50;0.50;;;23.60;55.60;;;;;;5051785;28;20778;-72
2023/05/06 12:15:48;;;;;;;1.27;1.17;;;23.30;58.10;;;;;;5053019;28;20586;-70
2023/05/06 12:18:14;;;;;;;0.70;0.70;;;23.00;59.20;;;;;;5053363;28;20794;-73
2023/05/06 12:20:40;;;;;;;1.10;1.10;;;23.20;56.40;;;;;;5054028;28;20378;-71
2023/05/06 12:23:13;;;;;;;1.27;1.00;;;23.60;57.80;;;;;;5053329;28;20409;-70
2023/05/06 12:25:41;;;;;;;1.13;0.50;;;24.00;57.50;;;;;;5053649;28;20205;-69
2023/05/06 12:28:27;;;;;;;0.40;0.40;;;24.10;54.80;;;;;;5053275;28;20400;-72
2023/05/06 12:30:53;;;;;;;0.57;0.57;;;24.10;55.50;;;;;;5053122;28;20419;-73
2023/05/06 12:33:18;;;;;;;1.73;1.63;;;23.90;56.40;;;;;;5053914;28;20470;-71
2023/05/06 12:35:44;;;;;;;0.50;0.50;;;23.70;56.70;;;;;;5052209;28;20690;-73
2023/05/06 12:38:14;;;;;;;0.60;0.60;;;23.70;56.20;;;;;;5052119;28;20154;-73
2023/05/06 12:40:51;;;;;;;0.60;0.50;;;23.90;57.00;;;;;;5052960;28;20622;-71
2023/05/06 12:43:16;;;;;;;0.50;0.50;;;24.00;56.70;;;;;;5053089;28;20769;-72
2023/05/06 12:45:44;;;;;;;0.50;0.50;;;24.20;56.90;;;;;;5053204;28;20411;-70
2023/05/06 12:48:15;;;;;;;0.60;0.60;;;24.30;56.90;;;;;;5051100;28;20575;-73